Latest Coastal Weather Observations for Broome

IDW60701

Issued at 2:33 am WST Saturday 27 August 2016 (issued every 10 minutes, with the page automatically refreshed every 10 minutes)

About coastal observations | Map of coastal stations | Coastal observations for WA | Marine services | Other Formats
Station Details ID: 003003 Name: BROOME AIRPORT Lat: -17.95 Lon: 122.24 Height: 7.42 m
Data from the previous 72 hours. | See also: Recent months at Broome
Date/Time
WST
Temp
°C
Wind Pressure Rain since
9am
mm
Weather Cloud Vis
km
Sea
Height
m
Swell
Dir  Spd
kts
Gust
kts
hPa Trend Height
m
Period
s
Dir
27/02:30am 17.0 CALM 0 0 1012.8 - 0.0 - - 10 - - - -
27/02:00am 16.7 CALM 0 0 1013.0 - 0.0 - - 10 - - - -
27/01:30am 17.4 CALM 0 0 1013.3 - 0.0 - - 10 - - - -
27/01:00am 17.0 CALM 0 0 1013.5 - 0.0 - - 10 - - - -
27/12:30am 18.6 CALM 0 0 1013.5 - 0.0 - - 10 - - - -
27/12:00am 18.0 CALM 0 0 1013.6 - 0.0 - - 10 - - - -
 
Date/Time
WST
Temp
°C
Wind Pressure Rain since
9am
mm
Weather Cloud Vis
km
Sea
Height
m
Swell
Dir  Spd
kts
Gust
kts
hPa Trend Height
m
Period
s
Dir
26/11:30pm 18.3 N 4 4 1013.8 - 0.0 - - 10 - - - -
26/11:00pm 20.7 N 4 5 1014.1 - 0.0 - - 10 - - - -
26/10:30pm 21.1 CALM 0 0 1014.2 - 0.0 - - 10 - - - -
26/10:00pm 22.2 NW 5 7 1014.1 - 0.0 - - 10 - - - -
26/09:30pm 22.8 NNW 6 7 1014.0 - 0.0 - - 10 - - - -
26/09:00pm 23.1 NNW 6 8 1014.0 - 0.0 - - 10 - - - -
26/08:30pm 23.5 N 6 8 1014.1 - 0.0 - - 10 - - - -
26/08:00pm 24.0 NNW 8 13 1013.8 - 0.0 - - 10 - - - -
26/07:30pm 24.4 NNW 9 12 1013.5 - 0.0 - - 10 - - - -
26/07:00pm 24.6 NNW 9 12 1013.0 - 0.0 - - 10 - - - -
26/06:30pm 25.2 NNW 10 13 1012.6 - 0.0 - - 10 - - - -
26/06:00pm 25.7 NNW 10 15 1012.0 - 0.0 - - 10 - - - -
26/05:30pm 26.6 NNW 11 16 1011.9 - 0.0 - - 10 - - - -
26/05:00pm 27.7 NNW 13 18 1011.6 - 0.0 - - 10 - - - -
26/04:30pm 28.6 NNW 13 19 1011.1 - 0.0 - - 10 - - - -
26/04:00pm 30.0 NNW 13 19 1010.5 - 0.0 - - 10 - - - -
26/03:30pm 32.3 SSE 6 9 1010.3 - 0.0 - - 10 - - - -
26/03:00pm 33.9 E 5 11 1010.3 - 0.0 - - 10 - - - -
26/02:30pm 33.0 E 7 11 1010.5 - 0.0 - - 10 - - - -
26/02:00pm 33.2 E 8 11 1010.6 - 0.0 - - 10 - - - -
26/01:30pm 32.5 ESE 8 11 1011.1 - 0.0 - - 10 - - - -
26/01:00pm 32.5 ESE 11 15 1011.7 - 0.0 - - 10 - - - -
26/12:30pm 32.1 E 12 20 1012.3 - 0.0 - - 10 - - - -
26/12:00pm 31.5 E 12 18 1012.9 - 0.0 - - 10 - - - -
26/11:30am 30.6 E 14 21 1013.5 - 0.0 - - 10 - - - -
26/11:00am 30.7 E 13 20 1014.0 - 0.0 - - 10 - - - -
26/10:30am 29.1 E 15 20 1014.3 - 0.0 - - 10 - - - -
26/10:00am 28.5 E 15 22 1014.5 - 0.0 - - 10 - - - -
26/09:30am 27.2 E 14 19 1014.8 - 0.0 - - 10 - - - -
26/09:00am 25.3 E 15 23 1015.0 - 0.0 - - 10 - - - -
26/08:30am 23.5 E 17 25 1015.1 - 0.0 - - 10 - - - -
26/08:19am 22.9 E 15 25 1015.1 - 0.0 - - 10 - - - -
26/08:00am 22.0 E 15 21 1015.1 - 0.0 - - 10 - - - -
26/07:30am 20.8 E 9 14 1015.2 - 0.0 - - 10 - - - -
26/07:00am 18.8 E 8 12 1015.1 - 0.0 - - 10 - - - -
26/06:30am 16.7 E 6 8 1014.8 - 0.0 - - 10 - - - -
26/06:00am 15.8 ESE 5 7 1014.3 - 0.0 - - 10 - - - -
26/05:30am 14.3 E 7 8 1014.1 - 0.0 - - 10 - - - -
26/05:00am 14.1 E 6 7 1014.0 - 0.0 - - 10 - - - -
26/04:30am 13.3 E 7 8 1013.7 - 0.0 - - 10 - - - -
26/04:00am 14.8 ESE 5 6 1013.5 - 0.0 - - 10 - - - -
26/03:30am 15.2 ESE 6 7 1013.5 - 0.0 - - 10 - - - -
26/03:00am 15.9 ESE 7 9 1013.2 - 0.0 - - 10 - - - -
26/02:30am 14.7 ENE 4 5 1013.3 - 0.0 - - 10 - - - -
26/02:00am 15.7 ENE 6 6 1013.1 - 0.0 - - 10 - - - -
26/01:45am 16.5 ENE 6 9 1013.1 - 0.0 - - 10 - - - -
26/01:30am 21.5 SE 11 15 1012.9 - 0.0 - - 10 - - - -
26/01:00am 21.3 SE 8 11 1013.1 - 0.0 - - 10 - - - -
26/12:30am 22.2 SE 12 23 1013.2 - 0.0 - - 10 - - - -
26/12:00am 18.4 E 5 9 1013.6 - 0.0 - - 10 - - - -
 
Date/Time
WST
Temp
°C
Wind Pressure Rain since
9am
mm
Weather Cloud Vis
km
Sea
Height
m
Swell
Dir  Spd
kts
Gust
kts
hPa Trend Height
m
Period
s
Dir
25/11:30pm 20.2 ESE 6 8 1013.9 - 0.0 - - 10 - - - -
25/11:00pm 22.0 SE 7 11 1014.0 - 0.0 - - 10 - - - -
25/10:30pm 21.9 SE 6 8 1014.3 - 0.0 - - 10 - - - -
25/10:00pm 23.6 SSE 7 9 1014.4 - 0.0 - - 10 - - - -
25/09:30pm 22.6 S 6 9 1014.3 - 0.0 - - 10 - - - -
25/09:00pm 23.2 SSW 9 10 1014.3 - 0.0 - - 10 - - - -
25/08:30pm 23.1 SSW 7 9 1014.3 - 0.0 - - 10 - - - -
25/08:00pm 23.6 SSW 8 11 1014.0 - 0.0 - - 10 - - - -
25/07:30pm 23.8 SSW 8 10 1013.6 - 0.0 - - 10 - - - -
25/07:00pm 24.2 SSW 8 12 1013.3 - 0.0 - - 10 - - - -
25/06:30pm 24.2 SW 8 10 1012.9 - 0.0 - - 10 - - - -
25/06:00pm 25.1 SW 8 10 1012.5 - 0.0 - - 10 - - - -
25/05:30pm 26.1 SW 8 10 1012.3 - 0.0 - - 10 - - - -
25/05:00pm 28.4 SW 7 9 1012.0 - 0.0 - - 10 - - - -
25/04:30pm 29.6 S 6 9 1011.8 - 0.0 - - 10 - - - -
25/04:00pm 29.8 S 7 10 1011.6 - 0.0 - - 10 - - - -
25/03:30pm 29.7 S 9 12 1011.6 - 0.0 - - 10 - - - -
25/03:00pm 29.9 S 8 11 1011.5 - 0.0 - - 10 - - - -
25/02:30pm 29.5 S 9 13 1011.8 - 0.0 - - 10 - - - -
25/02:00pm 29.1 S 9 13 1011.9 - 0.0 - - 10 - - - -
25/01:30pm 29.0 S 10 15 1012.2 - 0.0 - - 10 - - - -
25/01:00pm 29.1 SSE 11 16 1012.7 - 0.0 - - 10 - - - -
25/12:30pm 28.7 SE 12 16 1013.1 - 0.0 - - 10 - - - -
25/12:00pm 28.3 SE 13 19 1013.4 - 0.0 - - 10 - - - -
25/11:30am 27.8 ESE 14 20 1014.0 - 0.0 - - 10 - - - -
25/11:00am 27.7 ESE 12 18 1014.4 - 0.0 - - 10 - - - -
25/10:30am 27.1 E 17 23 1014.9 - 0.0 - - 10 - - - -
25/10:04am 26.6 ESE 16 26 1015.0 - 0.0 - - 10 - - - -
25/10:00am 26.6 ESE 16 24 1015.1 - 0.0 - - 10 - - - -
25/09:30am 25.8 ESE 17 24 1015.3 - 0.0 - - 10 - - - -
25/09:04am 25.0 ESE 15 26 1015.5 - 0.0 - - 10 - - - -
25/09:00am 24.1 ESE 13 17 1015.4 - 0.0 - - 10 - - - -
25/08:30am 21.1 SE 8 11 1015.7 - 0.0 - - 10 - - - -
25/08:00am 19.5 SE 7 9 1015.6 - 0.0 - - 10 - - - -
25/07:30am 18.6 ESE 10 14 1015.4 - 0.0 - - 10 - - - -
25/07:00am 17.5 ESE 9 13 1015.0 - 0.0 - - 10 - - - -
25/06:30am 15.5 E 7 10 1014.7 - 0.0 - - 10 - - - -
25/06:00am 15.0 E 8 10 1014.0 - 0.0 - - 10 - - - -
25/05:30am 14.0 ESE 5 7 1013.5 - 0.0 - - 10 - - - -
25/05:00am 13.7 E 5 7 1013.1 - 0.0 - - 10 - - - -
25/04:30am 14.2 E 6 9 1012.8 - 0.0 - - 10 - - - -
25/04:00am 14.2 NE 6 8 1012.6 - 0.0 - - 10 - - - -
25/03:30am 18.1 ESE 9 13 1012.3 - 0.0 - - 10 - - - -
25/03:00am 18.9 ESE 10 14 1012.1 - 0.0 - - 10 - - - -
25/02:30am 19.8 SE 9 12 1012.1 - 0.0 - - 10 - - - -
25/02:00am 15.9 ESE 5 8 1012.3 - 0.0 - - 10 - - - -
25/01:30am 16.6 ESE 5 6 1012.5 - 0.0 - - 10 - - - -
25/01:00am 17.0 NE 6 8 1012.5 - 0.0 - - 10 - - - -
25/12:30am 21.0 SSE 5 7 1012.6 - 0.0 - - 10 - - - -
25/12:00am 21.3 SE 6 11 1012.8 - 0.0 - - 10 - - - -
 
Date/Time
WST
Temp
°C
Wind Pressure Rain since
9am
mm
Weather Cloud Vis
km
Sea
Height
m
Swell
Dir  Spd
kts
Gust
kts
hPa Trend Height
m
Period
s
Dir
24/11:30pm 21.7 SSE 7 13 1013.0 - 0.0 - - 10 - - - -
24/11:00pm 21.3 S 5 7 1013.1 - 0.0 - - 10 - - - -
24/10:30pm 20.9 S 5 7 1013.2 - 0.0 - - 10 - - - -
24/10:00pm 21.5 S 6 8 1013.1 - 0.0 - - 10 - - - -
24/09:30pm 22.0 S 7 10 1013.0 - 0.0 - - 10 - - - -
24/09:00pm 22.3 SSW 7 10 1012.8 - 0.0 - - 10 - - - -
24/08:30pm 22.4 SSW 9 13 1012.9 - 0.0 - - 10 - - - -
24/08:00pm 22.4 SSW 8 10 1012.8 - 0.0 - - 10 - - - -
24/07:30pm 22.9 SSW 9 12 1012.5 - 0.0 - - 10 - - - -
24/07:00pm 23.2 SSW 9 12 1012.0 - 0.0 - - 10 - - - -
24/06:30pm 23.6 SSW 9 14 1011.6 - 0.0 - - 10 - - - -
24/06:00pm 24.1 SW 9 13 1011.1 - 0.0 - - 10 - - - -
24/05:30pm 24.8 SW 11 15 1011.0 - 0.0 - - 10 - - - -
24/05:00pm 26.3 SW 9 12 1010.8 - 0.0 - - 10 - - - -
24/04:30pm 27.2 SW 11 14 1010.7 - 0.0 - - 10 - - - -
24/04:00pm 28.8 S 5 7 1010.4 - 0.0 - - 10 - - - -
24/03:30pm 28.8 S 6 9 1010.3 - 0.0 - - 10 - - - -
24/03:00pm 29.1 S 6 8 1010.2 - 0.0 - - 10 - - - -
24/02:30pm 28.9 S 7 10 1010.4 - 0.0 - - 10 - - - -
24/02:00pm 28.3 S 8 11 1010.7 - 0.0 - - 10 - - - -
24/01:30pm 28.1 S 7 10 1011.2 - 0.0 - - 10 - - - -
24/01:00pm 27.3 S 7 10 1011.9 - 0.0 - - 10 - - - -
24/12:30pm 27.2 S 8 12 1012.4 - 0.0 - - 10 - - - -
24/12:00pm 27.3 SSE 10 14 1012.7 - 0.0 - - 10 - - - -
24/11:30am 26.9 SSE 11 15 1013.3 - 0.0 - - 10 - - - -
24/11:00am 27.0 SE 12 17 1013.7 - 0.0 - - 10 - - - -
24/10:30am 26.8 E 10 15 1014.1 - 0.0 - - 10 - - - -
24/10:00am 25.3 E 14 20 1014.4 - 0.0 - - 10 - - - -
24/09:30am 24.5 E 13 18 1014.7 - 0.0 - - 10 - - - -
24/09:00am 21.9 ESE 8 11 1015.0 - 0.0 - - 10 - - - -
24/08:30am 19.2 SE 9 12 1015.1 - 0.0 - - 10 - - - -
24/08:00am 17.5 SE 11 13 1015.0 - 0.0 - - 10 - - - -
24/07:30am 17.0 ESE 10 13 1014.7 - 0.0 - - 10 - - - -
24/07:00am 15.5 ESE 5 8 1014.5 - 0.0 - - 10 - - - -
24/06:30am 13.3 E 5 6 1014.2 - 0.0 - - 10 - - - -
24/06:00am 12.1 E 4 5 1013.8 - 0.0 - - 10 - - - -
24/05:30am 12.9 E 5 7 1013.4 - 0.0 - - 10 - - - -
24/05:00am 13.9 E 6 8 1013.1 - 0.0 - - 10 - - - -
24/04:30am 14.3 E 6 8 1012.7 - 0.0 - - 10 - - - -
24/04:00am 18.4 SE 13 20 1012.3 - 0.0 - - 10 - - - -
24/03:30am 18.9 SE 12 17 1012.1 - 0.0 - - 10 - - - -
24/03:00am 19.5 SE 13 19 1011.8 - 0.0 - - 10 - - - -

Other Formats:

Comma delimited format used in spreadsheet applications
http://www.bom.gov.au/fwo/IDW60701/IDW60701.94203.axf

JavaScript Object Notation format (JSON) in row-major order
http://www.bom.gov.au/fwo/IDW60701/IDW60701.94203.json